createdAt,value
2019-06-09T00:01:48.502Z,13.53
2019-06-09T00:04:34.002Z,13.55
2019-06-09T00:07:21.676Z,13.59
2019-06-09T00:10:11.210Z,13.58
2019-06-09T00:12:57.779Z,13.58
2019-06-09T00:15:44.386Z,13.57
2019-06-09T00:18:31.688Z,13.58
2019-06-09T00:21:19.724Z,13.59
2019-06-09T00:24:09.436Z,13.62
2019-06-09T00:26:57.363Z,13.62
2019-06-09T00:29:42.723Z,13.59
2019-06-09T00:32:30.700Z,13.56
2019-06-09T00:35:18.053Z,13.55
2019-06-09T00:38:05.175Z,13.51
2019-06-09T00:40:52.546Z,13.50
2019-06-09T00:43:40.460Z,13.48
2019-06-09T00:46:27.889Z,13.46
2019-06-09T00:49:17.484Z,13.46
2019-06-09T00:52:04.492Z,13.44
2019-06-09T00:54:50.823Z,13.42
2019-06-09T00:57:38.720Z,13.42
2019-06-09T01:00:27.573Z,13.42
2019-06-09T01:03:14.142Z,13.34
2019-06-09T01:06:01.020Z,13.33
2019-06-09T01:08:48.558Z,13.32
2019-06-09T01:11:37.563Z,13.32
2019-06-09T01:14:23.383Z,13.29
2019-06-09T01:17:12.462Z,13.25
2019-06-09T01:19:58.324Z,13.28
2019-06-09T01:22:47.989Z,13.25
2019-06-09T01:25:33.709Z,13.22
2019-06-09T01:28:22.131Z,13.22
2019-06-09T01:31:09.769Z,13.24
2019-06-09T01:33:57.274Z,13.21
2019-06-09T01:36:43.490Z,13.22
2019-06-09T01:39:30.945Z,13.24
2019-06-09T01:42:20.663Z,13.26
2019-06-09T01:45:07.568Z,13.25
2019-06-09T01:47:53.366Z,13.25
2019-06-09T01:50:40.985Z,13.28
2019-06-09T01:53:28.542Z,13.28
2019-06-09T01:56:18.623Z,13.27
2019-06-09T01:59:02.940Z,13.34
2019-06-09T02:01:50.347Z,13.36
2019-06-09T02:04:38.420Z,13.38
2019-06-09T02:07:27.355Z,13.41
2019-06-09T02:10:14.246Z,13.39
2019-06-09T02:13:01.221Z,13.40
2019-06-09T02:15:49.188Z,13.41
2019-06-09T02:18:37.691Z,13.38
2019-06-09T02:21:24.271Z,13.38
2019-06-09T02:24:11.783Z,13.33
2019-06-09T02:26:59.139Z,13.31
2019-06-09T02:29:47.494Z,13.29
2019-06-09T02:32:37.731Z,13.29
2019-06-09T02:35:29.070Z,13.22
2019-06-09T02:38:12.494Z,13.19
2019-06-09T02:40:57.693Z,13.14
2019-06-09T02:43:45.281Z,13.08
2019-06-09T02:46:55.075Z,13.07
2019-06-09T02:49:45.465Z,13.06
2019-06-09T02:52:33.770Z,13.06
2019-06-09T02:55:15.901Z,13.05
2019-06-09T02:58:03.404Z,13.03
2019-06-09T03:00:54.116Z,13.04
2019-06-09T03:03:59.167Z,13.03
2019-06-09T03:06:30.852Z,13.01
2019-06-09T03:09:14.043Z,12.99
2019-06-09T03:12:02.516Z,12.96
2019-06-09T03:14:52.590Z,12.95
2019-06-09T03:17:40.781Z,12.93
2019-06-09T03:20:30.103Z,12.90
2019-06-09T03:23:12.341Z,12.86
2019-06-09T03:26:02.746Z,12.81
2019-06-09T03:28:47.884Z,12.78
2019-06-09T03:32:04.170Z,12.72
2019-06-09T03:39:57.797Z,12.63
2019-06-09T03:42:45.692Z,12.63
2019-06-09T03:45:39.488Z,12.65
2019-06-09T03:48:23.193Z,12.66
2019-06-09T03:51:08.447Z,12.68
2019-06-09T03:53:58.205Z,12.69
2019-06-09T03:56:46.082Z,12.70
2019-06-09T03:59:42.656Z,12.73
2019-06-09T04:02:24.743Z,12.77
2019-06-09T04:05:12.250Z,12.78
2019-06-09T04:07:57.537Z,12.81
2019-06-09T04:10:45.387Z,12.81
2019-06-09T04:13:40.136Z,12.82
2019-06-09T04:16:23.705Z,12.85
2019-06-09T04:19:07.416Z,12.85
2019-06-09T04:21:54.827Z,12.88
2019-06-09T04:24:44.125Z,12.93
2019-06-09T04:27:40.681Z,12.97
2019-06-09T04:30:23.393Z,13.00
2019-06-09T04:33:06.288Z,13.08
2019-06-09T04:38:45.367Z,13.23
2019-06-09T04:41:35.212Z,13.27
2019-06-09T04:44:18.329Z,13.30
2019-06-09T04:47:11.585Z,13.35
2019-06-09T04:49:55.480Z,13.37
2019-06-09T04:52:46.273Z,13.42
2019-06-09T04:55:36.066Z,13.44
2019-06-09T04:58:24.373Z,13.52
2019-06-09T05:01:05.825Z,13.54
2019-06-09T05:03:53.255Z,13.61
2019-06-09T05:07:00.109Z,13.65
2019-06-09T05:09:29.860Z,13.73
2019-06-09T05:12:15.389Z,13.80
2019-06-09T05:15:03.122Z,13.83
2019-06-09T05:17:53.740Z,13.87
2019-06-09T05:20:42.541Z,13.96
2019-06-09T05:23:26.943Z,14.02
2019-06-09T05:26:14.420Z,14.03
2019-06-09T05:29:02.444Z,14.10
2019-06-09T05:31:51.582Z,14.18
2019-06-09T05:34:38.807Z,14.26
2019-06-09T05:37:27.185Z,14.26
2019-06-09T05:40:12.132Z,14.37
2019-06-09T05:43:01.335Z,14.39
2019-06-09T05:45:47.372Z,14.48
2019-06-09T05:48:36.626Z,14.60
2019-06-09T05:51:22.883Z,14.72
2019-06-09T05:54:10.944Z,14.73
2019-06-09T05:56:57.781Z,14.82
2019-06-09T05:59:45.130Z,15.02
2019-06-09T06:02:34.190Z,15.14
2019-06-09T06:05:21.542Z,15.27
2019-06-09T06:08:07.311Z,15.43
2019-06-09T06:10:54.575Z,15.57
2019-06-09T06:13:44.967Z,15.72
2019-06-09T06:16:31.819Z,15.87
2019-06-09T06:19:17.649Z,15.93
2019-06-09T06:22:05.483Z,15.94
2019-06-09T06:24:52.846Z,15.96
2019-06-09T06:27:42.653Z,15.84
2019-06-09T06:30:30.580Z,15.73
2019-06-09T06:33:16.261Z,15.66
2019-06-09T06:36:03.992Z,15.93
2019-06-09T06:38:51.794Z,16.11
2019-06-09T06:41:42.135Z,16.20
2019-06-09T06:44:26.214Z,16.25
2019-06-09T06:47:16.153Z,16.33
2019-06-09T06:50:02.143Z,16.35
2019-06-09T06:52:51.559Z,16.40
2019-06-09T06:55:37.291Z,16.59
2019-06-09T06:58:24.715Z,16.84
2019-06-09T07:01:12.017Z,16.94
2019-06-09T07:04:01.659Z,16.92
2019-06-09T07:06:48.296Z,16.97
2019-06-09T07:09:34.480Z,17.14
2019-06-09T07:12:21.861Z,17.19
2019-06-09T07:15:10.948Z,17.08
2019-06-09T07:17:57.400Z,17.13
2019-06-09T07:20:46.335Z,17.10
2019-06-09T07:23:32.115Z,17.30
2019-06-09T07:26:21.135Z,17.34
2019-06-09T07:29:07.504Z,17.31
2019-06-09T07:31:55.624Z,17.30
2019-06-09T07:34:45.291Z,17.44
2019-06-09T07:37:32.073Z,17.47
2019-06-09T07:40:20.880Z,17.61
2019-06-09T07:43:05.687Z,17.75
2019-06-09T07:45:58.334Z,17.80
2019-06-09T07:48:41.808Z,17.87
2019-06-09T07:51:27.631Z,17.94
2019-06-09T07:54:14.983Z,18.07
2019-06-09T07:57:02.899Z,17.97
2019-06-09T07:59:53.334Z,18.03
2019-06-09T08:02:37.891Z,18.18
2019-06-09T08:05:25.452Z,18.29
2019-06-09T08:08:33.591Z,18.35
2019-06-09T08:11:01.061Z,18.36
2019-06-09T08:13:48.263Z,18.44
2019-06-09T08:16:36.179Z,18.44
2019-06-09T08:19:23.710Z,18.38
2019-06-09T08:22:11.254Z,18.45
2019-06-09T08:25:11.601Z,18.40
2019-06-09T08:28:01.286Z,18.52
2019-06-09T08:30:47.251Z,18.57
2019-06-09T08:33:34.327Z,18.75
2019-06-09T08:36:21.860Z,18.98
2019-06-09T08:39:12.733Z,19.21
2019-06-09T08:41:57.311Z,19.29
2019-06-09T08:44:45.382Z,19.23
2019-06-09T08:47:31.935Z,19.19
2019-06-09T08:50:21.556Z,19.35
2019-06-09T08:53:07.297Z,19.71
2019-06-09T08:55:55.911Z,19.84
2019-06-09T08:58:41.991Z,20.03
2019-06-09T09:01:31.678Z,20.08
2019-06-09T09:04:16.420Z,19.96
2019-06-09T09:07:04.084Z,20.05
2019-06-09T09:09:54.395Z,20.04
2019-06-09T09:12:40.805Z,20.01
2019-06-09T09:15:27.508Z,20.36
2019-06-09T09:18:14.825Z,20.33
2019-06-09T09:21:02.405Z,20.29
2019-06-09T09:24:17.180Z,20.64
2019-06-09T09:26:37.684Z,20.74
2019-06-09T09:29:25.710Z,20.85
2019-06-09T09:32:13.494Z,21.00
2019-06-09T09:35:00.750Z,20.94
2019-06-09T09:37:50.158Z,20.98
2019-06-09T09:40:35.543Z,20.98
2019-06-09T09:43:22.923Z,21.18
2019-06-09T09:46:11.157Z,21.71
2019-06-09T09:49:00.699Z,21.67
2019-06-09T09:51:46.823Z,21.71
2019-06-09T09:54:33.386Z,21.66
2019-06-09T09:57:21.270Z,21.50
2019-06-09T10:00:10.781Z,21.64
2019-06-09T10:02:59.373Z,21.61
2019-06-09T10:05:44.284Z,21.68
2019-06-09T10:08:32.581Z,21.88
2019-06-09T10:11:19.509Z,22.24
2019-06-09T10:14:06.884Z,22.85
2019-06-09T10:16:56.398Z,23.18
2019-06-09T10:19:42.000Z,23.51
2019-06-09T10:22:31.587Z,23.81
2019-06-09T10:25:19.646Z,24.26
2019-06-09T10:28:04.527Z,24.58
2019-06-09T10:30:56.007Z,24.87
2019-06-09T10:33:40.154Z,24.93
2019-06-09T10:36:27.648Z,24.41
2019-06-09T10:39:15.727Z,24.38
2019-06-09T10:42:04.095Z,24.28
2019-06-09T10:44:55.131Z,24.51
2019-06-09T10:47:41.755Z,24.50
2019-06-09T10:50:30.954Z,24.09
2019-06-09T10:53:16.304Z,23.38
2019-06-09T10:56:06.169Z,23.88
2019-06-09T10:58:51.596Z,24.33
2019-06-09T11:01:40.869Z,24.39
2019-06-09T11:04:26.009Z,24.41
2019-06-09T11:07:13.456Z,24.41
2019-06-09T11:10:16.668Z,24.73
2019-06-09T11:12:51.130Z,25.06
2019-06-09T11:15:39.139Z,25.40
2019-06-09T11:18:23.976Z,25.59
2019-06-09T11:21:11.883Z,26.15
2019-06-09T11:24:03.275Z,26.76
2019-06-09T11:26:46.866Z,26.70
2019-06-09T11:29:34.845Z,25.34
2019-06-09T11:32:22.144Z,26.13
2019-06-09T11:35:11.024Z,25.98
2019-06-09T11:38:03.589Z,26.08
2019-06-09T11:40:52.126Z,26.63
2019-06-09T11:43:38.590Z,27.08
2019-06-09T11:46:25.573Z,26.89
2019-06-09T11:49:13.362Z,27.17
2019-06-09T11:52:05.499Z,26.44
2019-06-09T11:54:48.196Z,26.87
2019-06-09T11:57:35.625Z,27.41
2019-06-09T12:00:23.093Z,27.72
2019-06-09T12:03:10.947Z,27.93
2019-06-09T12:05:59.783Z,27.36
2019-06-09T12:08:45.440Z,27.33
2019-06-09T12:11:33.016Z,28.00
2019-06-09T12:14:21.968Z,28.17
2019-06-09T12:17:07.905Z,27.80
2019-06-09T12:19:56.189Z,27.83
2019-06-09T12:22:42.897Z,28.25
2019-06-09T12:25:30.367Z,28.74
2019-06-09T12:28:17.755Z,28.89
2019-06-09T12:31:07.297Z,28.23
2019-06-09T12:33:52.859Z,28.11
2019-06-09T12:36:42.133Z,28.18
2019-06-09T12:39:27.617Z,28.06
2019-06-09T12:42:14.996Z,28.00
2019-06-09T12:45:04.576Z,28.10
2019-06-09T12:47:50.992Z,28.32
2019-06-09T12:50:37.523Z,28.15
2019-06-09T12:53:25.007Z,27.57
2019-06-09T12:56:13.638Z,27.14
2019-06-09T12:59:01.177Z,27.14
2019-06-09T13:01:47.486Z,27.67
2019-06-09T13:04:35.277Z,28.05
2019-06-09T13:07:22.575Z,28.59
2019-06-09T13:10:10.305Z,27.63
2019-06-09T13:12:57.535Z,28.44
2019-06-09T13:15:45.674Z,28.76
2019-06-09T13:18:33.666Z,28.83
2019-06-09T13:21:21.435Z,29.36
2019-06-09T13:24:09.140Z,28.99
2019-06-09T13:26:57.034Z,28.80
2019-06-09T13:29:44.323Z,28.33
2019-06-09T13:32:31.685Z,28.15
2019-06-09T13:35:19.208Z,27.68
2019-06-09T13:38:07.883Z,28.38
2019-06-09T13:40:54.227Z,28.77
2019-06-09T13:43:42.164Z,29.35
2019-06-09T13:46:31.108Z,29.94
2019-06-09T13:49:17.399Z,30.69
2019-06-09T13:52:04.885Z,30.67
2019-06-09T13:54:52.287Z,30.75
2019-06-09T13:57:44.081Z,29.99
2019-06-09T14:00:28.308Z,29.49
2019-06-09T14:03:17.483Z,29.08
2019-06-09T14:06:04.561Z,28.99
2019-06-09T14:08:51.156Z,29.22
2019-06-09T14:11:42.065Z,29.59
2019-06-09T14:14:27.326Z,29.22
2019-06-09T14:17:15.787Z,29.07
2019-06-09T14:20:01.822Z,29.11
2019-06-09T14:22:49.217Z,28.96
2019-06-09T14:25:37.696Z,28.58
2019-06-09T14:28:24.901Z,28.15
2019-06-09T14:31:14.673Z,27.61
2019-06-09T14:34:03.261Z,27.39
2019-06-09T14:36:47.709Z,27.28
2019-06-09T14:39:35.055Z,27.20
2019-06-09T14:42:36.876Z,27.18
2019-06-09T14:45:13.228Z,27.10
2019-06-09T14:47:57.902Z,27.47
2019-06-09T14:50:45.509Z,27.62
2019-06-09T14:53:33.231Z,27.64
2019-06-09T14:56:22.356Z,27.85
2019-06-09T14:59:09.818Z,27.90
2019-06-09T15:01:55.946Z,27.94
2019-06-09T15:04:43.394Z,28.01
2019-06-09T15:07:31.556Z,28.43
2019-06-09T15:10:19.512Z,28.61
2019-06-09T15:13:06.171Z,28.83
2019-06-09T15:15:53.752Z,29.11
2019-06-09T15:18:41.230Z,29.56
2019-06-09T15:21:31.093Z,29.95
2019-06-09T15:24:18.318Z,30.58
2019-06-09T15:27:04.917Z,31.04
2019-06-09T15:29:52.447Z,31.36
2019-06-09T15:32:39.825Z,31.96
2019-06-09T15:35:27.744Z,32.60
2019-06-09T15:38:15.786Z,33.02
2019-06-09T15:41:03.180Z,33.56
2019-06-09T15:43:51.234Z,33.78
2019-06-09T15:46:38.345Z,33.69
2019-06-09T15:49:25.673Z,33.92
2019-06-09T15:52:14.063Z,34.27
2019-06-09T15:55:01.697Z,34.37
2019-06-09T15:57:48.065Z,34.11
2019-06-09T16:00:41.350Z,34.07
2019-06-09T16:03:26.544Z,33.60
2019-06-09T16:06:15.480Z,33.58
2019-06-09T16:09:02.649Z,32.97
2019-06-09T16:11:51.316Z,32.20
2019-06-09T16:14:41.161Z,31.21
2019-06-09T16:17:41.582Z,30.22
2019-06-09T16:20:31.723Z,29.45
2019-06-09T16:23:17.306Z,28.79
2019-06-09T16:26:03.976Z,28.10
2019-06-09T16:28:51.282Z,27.78
2019-06-09T16:31:40.810Z,27.44
2019-06-09T16:34:27.952Z,27.30
2019-06-09T16:37:14.425Z,26.92
2019-06-09T16:40:01.894Z,26.91
2019-06-09T16:42:52.903Z,26.81
2019-06-09T16:45:39.554Z,27.73
2019-06-09T16:48:26.410Z,28.60
2019-06-09T16:51:15.640Z,29.09
2019-06-09T16:54:01.225Z,29.60
2019-06-09T16:56:47.688Z,29.90
2019-06-09T16:59:35.652Z,29.69
2019-06-09T17:02:26.052Z,29.21
2019-06-09T17:05:11.220Z,28.62
2019-06-09T17:08:21.777Z,27.99
2019-06-09T17:11:07.404Z,27.33
2019-06-09T17:14:00.452Z,26.90
2019-06-09T17:16:43.174Z,26.60
2019-06-09T17:19:36.612Z,26.24
2019-06-09T17:22:18.388Z,26.02
2019-06-09T17:25:05.944Z,25.85
2019-06-09T17:27:53.801Z,25.70
2019-06-09T17:30:41.537Z,25.74
2019-06-09T17:33:32.689Z,25.80
2019-06-09T17:36:16.330Z,25.82
2019-06-09T17:39:05.054Z,25.71
2019-06-09T17:41:52.910Z,25.63
2019-06-09T17:44:40.889Z,25.46
2019-06-09T17:47:29.210Z,25.27
2019-06-09T17:50:15.805Z,25.02
2019-06-09T17:53:03.912Z,24.83
2019-06-09T17:55:52.246Z,24.65
2019-06-09T17:58:41.721Z,24.70
2019-06-09T18:01:27.088Z,24.71
2019-06-09T18:04:14.486Z,24.78
2019-06-09T18:07:02.480Z,24.67
2019-06-09T18:09:52.494Z,24.58
2019-06-09T18:12:39.509Z,24.40
2019-06-09T18:15:26.406Z,24.20
2019-06-09T18:18:13.046Z,24.03
2019-06-09T18:21:01.539Z,24.01
2019-06-09T18:23:51.387Z,24.28
2019-06-09T18:26:37.802Z,24.51
2019-06-09T18:29:24.444Z,24.41
2019-06-09T18:32:12.216Z,24.38
2019-06-09T18:35:01.160Z,24.62
2019-06-09T18:37:47.218Z,24.97
2019-06-09T18:40:37.296Z,25.40
2019-06-09T18:43:23.778Z,25.52
2019-06-09T18:46:11.448Z,25.33
2019-06-09T18:49:01.986Z,25.01
2019-06-09T18:51:46.591Z,24.59
2019-06-09T18:54:34.319Z,24.15
2019-06-09T18:57:22.088Z,23.68
2019-06-09T19:00:11.207Z,23.26
2019-06-09T19:02:57.116Z,22.90
2019-06-09T19:05:44.869Z,22.56
2019-06-09T19:08:33.254Z,22.27
2019-06-09T19:11:21.430Z,22.02
2019-06-09T19:14:10.916Z,21.75
2019-06-09T19:16:56.665Z,21.55
2019-06-09T19:19:44.257Z,21.38
2019-06-09T19:22:33.453Z,21.22
2019-06-09T19:25:21.176Z,21.08
2019-06-09T19:28:07.070Z,20.95
2019-06-09T19:30:56.755Z,20.86
2019-06-09T19:33:44.600Z,20.78
2019-06-09T19:36:31.907Z,20.69
2019-06-09T19:39:17.240Z,20.61
2019-06-09T19:42:05.244Z,20.54
2019-06-09T19:44:52.772Z,20.46
2019-06-09T19:47:44.841Z,20.38
2019-06-09T19:50:27.835Z,20.30
2019-06-09T19:53:15.583Z,20.23
2019-06-09T19:56:03.306Z,20.14
2019-06-09T19:58:51.156Z,20.08
2019-06-09T20:01:39.757Z,19.99
2019-06-09T20:04:26.132Z,19.91
2019-06-09T20:07:14.031Z,19.87
2019-06-09T20:10:01.716Z,19.83
2019-06-09T20:12:51.595Z,19.80
2019-06-09T20:15:38.167Z,19.78
2019-06-09T20:18:24.726Z,19.75
2019-06-09T20:21:12.078Z,19.74
2019-06-09T20:24:01.419Z,19.74
2019-06-09T20:26:51.667Z,19.71
2019-06-09T20:29:34.581Z,19.71
2019-06-09T20:32:22.359Z,19.70
2019-06-09T20:35:10.703Z,19.68
2019-06-09T20:37:57.122Z,19.65
2019-06-09T20:40:49.340Z,19.64
2019-06-09T20:43:34.266Z,19.59
2019-06-09T20:46:21.801Z,19.58
2019-06-09T20:49:07.106Z,19.54
2019-06-09T20:51:54.757Z,19.51
2019-06-09T20:54:46.213Z,19.47
2019-06-09T20:57:31.329Z,19.44
2019-06-09T21:00:20.779Z,19.42
2019-06-09T21:03:06.801Z,19.36
2019-06-09T21:05:55.226Z,19.33
2019-06-09T21:08:42.725Z,19.30
2019-06-09T21:11:31.596Z,19.27
2019-06-09T21:14:16.847Z,19.24
2019-06-09T21:17:04.483Z,19.20
2019-06-09T21:19:56.568Z,19.17
2019-06-09T21:22:42.748Z,19.13
2019-06-09T21:25:28.749Z,19.13
2019-06-09T21:28:16.156Z,19.19
2019-06-09T21:31:06.567Z,19.27
2019-06-09T21:33:54.186Z,19.33
2019-06-09T21:36:43.460Z,19.38
2019-06-09T21:39:30.867Z,19.41
2019-06-09T21:42:17.766Z,19.39
2019-06-09T21:45:05.309Z,19.35
2019-06-09T21:47:53.812Z,19.28
2019-06-09T21:50:41.232Z,19.20
2019-06-09T21:53:28.204Z,19.13
2019-06-09T21:56:15.597Z,19.09
2019-06-09T21:59:03.589Z,19.03
2019-06-09T22:01:55.147Z,18.98
2019-06-09T22:04:40.736Z,18.94
2019-06-09T22:07:26.880Z,18.90
2019-06-09T22:10:14.622Z,18.89
2019-06-09T22:13:02.237Z,18.86
2019-06-09T22:15:54.184Z,18.86
2019-06-09T22:18:37.330Z,18.84
2019-06-09T22:21:24.689Z,18.84
2019-06-09T22:24:12.706Z,18.84
2019-06-09T22:27:01.774Z,18.83
2019-06-09T22:29:48.975Z,18.82
2019-06-09T22:32:35.840Z,18.81
2019-06-09T22:35:23.227Z,18.81
2019-06-09T22:38:11.440Z,18.79
2019-06-09T22:40:59.652Z,18.78
2019-06-09T22:43:46.278Z,18.77
2019-06-09T22:46:33.929Z,18.77
2019-06-09T22:49:21.353Z,18.75
2019-06-09T22:52:10.907Z,18.72
2019-06-09T22:54:58.093Z,18.71
2019-06-09T22:57:44.654Z,18.70
2019-06-09T23:00:32.109Z,18.63
2019-06-09T23:03:20.021Z,18.61
2019-06-09T23:06:07.432Z,18.57
2019-06-09T23:08:55.313Z,18.54
2019-06-09T23:11:42.799Z,18.50
2019-06-09T23:14:30.762Z,18.46
2019-06-09T23:17:22.623Z,18.40
2019-06-09T23:20:06.606Z,18.37
2019-06-09T23:22:54.525Z,18.33
2019-06-09T23:25:41.799Z,18.30
2019-06-09T23:28:31.277Z,18.28
2019-06-09T23:31:16.595Z,18.24
2019-06-09T23:34:04.786Z,18.22
2019-06-09T23:36:53.385Z,18.19
2019-06-09T23:39:41.455Z,18.16
2019-06-09T23:42:27.579Z,18.14
2019-06-09T23:45:15.331Z,18.11
2019-06-09T23:48:04.283Z,18.09
2019-06-09T23:50:51.597Z,18.09
2019-06-09T23:53:41.052Z,18.09
2019-06-09T23:56:26.501Z,18.06
2019-06-09T23:59:14.083Z,18.06
